createdAt,value
2018-11-14T00:00:28.923Z,97041.22
2018-11-14T00:02:58.805Z,97043.27
2018-11-14T00:05:28.003Z,97047.33
2018-11-14T00:07:57.195Z,97046.61
2018-11-14T00:10:26.359Z,97047.12
2018-11-14T00:12:55.489Z,97043.52
2018-11-14T00:15:25.811Z,97041.39
2018-11-14T00:17:55.221Z,97042.42
2018-11-14T00:20:24.396Z,97041.09
2018-11-14T00:22:53.733Z,97043.67
2018-11-14T00:25:22.884Z,97041.52
2018-11-14T00:27:52.099Z,97033.00
2018-11-14T00:30:23.338Z,97038.73
2018-11-14T00:32:52.496Z,97030.45
2018-11-14T00:35:21.821Z,97038.31
2018-11-14T00:37:51.456Z,97035.42
2018-11-14T00:40:21.273Z,97033.80
2018-11-14T00:42:50.725Z,97034.92
2018-11-14T00:45:21.167Z,97032.34
2018-11-14T00:47:50.669Z,97036.63
2018-11-14T00:50:20.280Z,97033.27
2018-11-14T00:52:49.429Z,97031.23
2018-11-14T00:55:19.901Z,97028.74
2018-11-14T00:57:49.913Z,97030.66
2018-11-14T01:00:23.546Z,97025.88
2018-11-14T01:02:52.880Z,97024.77
2018-11-14T01:05:22.053Z,97021.98
2018-11-14T01:07:51.220Z,97020.41
2018-11-14T01:10:21.534Z,97017.02
2018-11-14T01:12:51.260Z,97016.97
2018-11-14T01:15:21.590Z,97013.77
2018-11-14T01:17:50.861Z,97012.56
2018-11-14T01:20:21.119Z,97010.73
2018-11-14T01:22:50.500Z,97013.89
2018-11-14T01:25:20.116Z,97015.05
2018-11-14T01:27:49.282Z,97020.75
2018-11-14T01:30:19.776Z,97013.52
2018-11-14T01:32:49.428Z,97008.91
2018-11-14T01:35:19.081Z,97011.94
2018-11-14T01:37:48.424Z,97004.93
2018-11-14T01:40:19.969Z,97007.75
2018-11-14T01:42:50.301Z,97003.77
2018-11-14T01:45:19.477Z,97008.00
2018-11-14T01:47:48.826Z,97001.81
2018-11-14T01:50:18.197Z,97000.16
2018-11-14T01:52:47.364Z,97004.77
2018-11-14T01:55:17.654Z,97002.81
2018-11-14T01:57:46.851Z,96998.61
2018-11-14T02:00:18.202Z,96997.99
2018-11-14T02:02:47.413Z,96991.14
2018-11-14T02:05:16.587Z,96997.28
2018-11-14T02:07:45.754Z,96993.52
2018-11-14T02:10:17.535Z,96987.20
2018-11-14T02:12:46.954Z,96991.56
2018-11-14T02:15:18.971Z,96989.90
2018-11-14T02:17:48.237Z,96990.40
2018-11-14T02:20:17.490Z,96990.56
2018-11-14T02:22:47.025Z,96989.23
2018-11-14T02:25:16.747Z,96988.53
2018-11-14T02:27:45.920Z,96985.33
2018-11-14T02:30:17.879Z,96985.95
2018-11-14T02:32:47.022Z,96986.33
2018-11-14T02:35:16.190Z,96983.42
2018-11-14T02:37:45.791Z,96979.47
2018-11-14T02:40:17.251Z,96981.50
2018-11-14T02:42:46.548Z,96977.31
2018-11-14T02:45:15.949Z,96985.41
2018-11-14T02:47:45.106Z,96978.44
2018-11-14T02:50:15.773Z,96983.55
2018-11-14T02:52:44.930Z,96977.81
2018-11-14T02:55:15.101Z,96980.63
2018-11-14T02:57:44.726Z,96976.56
2018-11-14T03:00:17.601Z,96973.41
2018-11-14T03:02:46.848Z,96970.75
2018-11-14T03:05:16.414Z,96968.92
2018-11-14T03:07:45.564Z,96971.25
2018-11-14T03:10:18.563Z,96963.45
2018-11-14T03:12:47.715Z,96962.91
2018-11-14T03:15:19.670Z,96969.34
2018-11-14T03:17:48.843Z,96965.86
2018-11-14T03:20:19.221Z,96966.14
2018-11-14T03:22:48.560Z,96969.05
2018-11-14T03:25:17.706Z,96960.53
2018-11-14T03:27:46.865Z,96962.06
2018-11-14T03:30:17.561Z,96961.81
2018-11-14T03:32:46.782Z,96963.89
2018-11-14T03:35:16.165Z,96964.47
2018-11-14T03:37:45.327Z,96958.33
2018-11-14T03:40:15.793Z,96964.47
2018-11-14T03:42:45.120Z,96970.98
2018-11-14T03:45:14.996Z,96974.73
2018-11-14T03:47:44.163Z,96972.52
2018-11-14T03:50:13.426Z,96967.14
2018-11-14T03:52:42.565Z,96976.98
2018-11-14T03:55:11.734Z,96970.13
2018-11-14T03:57:40.891Z,96970.62
2018-11-14T04:00:14.150Z,96977.20
2018-11-14T04:02:44.297Z,96975.33
2018-11-14T04:05:13.436Z,96974.92
2018-11-14T04:07:43.060Z,96976.51
2018-11-14T04:10:13.227Z,96972.39
2018-11-14T04:12:42.834Z,96969.59
2018-11-14T04:15:13.214Z,96969.89
2018-11-14T04:17:42.365Z,96970.91
2018-11-14T04:20:16.176Z,96968.62
2018-11-14T04:22:45.988Z,96959.53
2018-11-14T04:25:16.597Z,96963.38
2018-11-14T04:27:46.358Z,96963.58
2018-11-14T04:30:17.572Z,96962.30
2018-11-14T04:32:46.752Z,96969.46
2018-11-14T04:35:16.934Z,96971.98
2018-11-14T04:37:46.085Z,96967.36
2018-11-14T04:40:18.244Z,96963.38
2018-11-14T04:42:47.398Z,96958.84
2018-11-14T04:45:19.199Z,96960.34
2018-11-14T04:47:48.487Z,96955.62
2018-11-14T04:50:21.811Z,96955.56
2018-11-14T04:52:51.477Z,96952.86
2018-11-14T04:55:21.756Z,96957.27
2018-11-14T04:57:51.342Z,96952.98
2018-11-14T05:00:21.692Z,96953.78
2018-11-14T05:02:51.168Z,96951.53
2018-11-14T05:05:21.405Z,96952.72
2018-11-14T05:07:50.566Z,96958.29
2018-11-14T05:10:21.825Z,96959.98
2018-11-14T05:12:51.429Z,96954.42
2018-11-14T05:15:21.884Z,96958.47
2018-11-14T05:17:51.809Z,96952.09
2018-11-14T05:20:21.826Z,96949.44
2018-11-14T05:22:51.605Z,96944.56
2018-11-14T05:25:21.129Z,96950.70
2018-11-14T05:27:50.329Z,96953.91
2018-11-14T05:30:21.702Z,96952.72
2018-11-14T05:32:51.382Z,96955.94
2018-11-14T05:35:20.539Z,96959.50
2018-11-14T05:37:50.001Z,96951.97
2018-11-14T05:40:20.684Z,96951.53
2018-11-14T05:42:50.419Z,96952.23
2018-11-14T05:45:21.001Z,96955.81
2018-11-14T05:47:50.123Z,96951.61
2018-11-14T05:50:20.349Z,96947.80
2018-11-14T05:52:49.551Z,96954.30
2018-11-14T05:55:18.742Z,96952.41
2018-11-14T05:57:48.263Z,96954.48
2018-11-14T06:00:24.355Z,96951.97
2018-11-14T06:02:53.860Z,96945.53
2018-11-14T06:05:23.061Z,96940.09
2018-11-14T06:07:52.269Z,96939.52
2018-11-14T06:10:21.754Z,96943.11
2018-11-14T06:12:50.923Z,96940.78
2018-11-14T06:15:20.667Z,96941.22
2018-11-14T06:17:50.753Z,96939.27
2018-11-14T06:20:21.311Z,96939.40
2018-11-14T06:22:51.306Z,96942.11
2018-11-14T06:25:31.895Z,96941.41
2018-11-14T06:28:02.496Z,96944.20
2018-11-14T06:30:32.186Z,96943.63
2018-11-14T06:33:02.108Z,96940.77
2018-11-14T06:35:31.332Z,96949.63
2018-11-14T06:38:00.553Z,96950.94
2018-11-14T06:40:29.918Z,96950.80
2018-11-14T06:42:59.085Z,96953.38
2018-11-14T06:45:29.526Z,96950.59
2018-11-14T06:47:59.883Z,96951.87
2018-11-14T06:50:29.098Z,96954.92
2018-11-14T06:53:02.806Z,96957.92
2018-11-14T06:55:32.296Z,96952.89
2018-11-14T06:58:01.469Z,96951.16
2018-11-14T07:00:33.612Z,96954.85
2018-11-14T07:03:04.046Z,96963.75
2018-11-14T07:05:33.295Z,96957.73
2018-11-14T07:08:02.396Z,96962.42
2018-11-14T07:10:35.263Z,96959.09
2018-11-14T07:13:05.872Z,96961.61
2018-11-14T07:15:35.762Z,96963.12
2018-11-14T07:18:05.144Z,96945.25
2018-11-14T07:20:36.543Z,96943.99
2018-11-14T07:23:05.834Z,96948.40
2018-11-14T07:25:35.038Z,96947.48
2018-11-14T07:28:04.203Z,96941.75
2018-11-14T07:30:34.070Z,96943.45
2018-11-14T07:33:04.673Z,96945.48
2018-11-14T07:35:34.749Z,96948.19
2018-11-14T07:38:37.706Z,96945.01
2018-11-14T07:41:09.254Z,96951.65
2018-11-14T07:43:39.137Z,96949.21
2018-11-14T07:46:08.884Z,96943.20
2018-11-14T07:48:38.473Z,96947.84
2018-11-14T07:51:07.986Z,96939.68
2018-11-14T07:53:37.161Z,96942.63
2018-11-14T07:56:06.605Z,96951.84
2018-11-14T07:58:35.802Z,96950.87
2018-11-14T08:01:05.171Z,96955.41
2018-11-14T08:03:34.313Z,96955.41
2018-11-14T08:06:03.429Z,96949.71
2018-11-14T08:08:32.618Z,96954.72
2018-11-14T08:11:01.726Z,96951.99
2018-11-14T08:13:31.989Z,96945.28
2018-11-14T08:16:01.769Z,96944.40
2018-11-14T08:18:31.112Z,96943.73
2018-11-14T08:21:01.104Z,96945.20
2018-11-14T08:23:30.221Z,96938.30
2018-11-14T08:25:59.394Z,96939.87
2018-11-14T08:28:28.539Z,96943.92
2018-11-14T08:30:57.821Z,96947.09
2018-11-14T08:33:27.299Z,96948.71
2018-11-14T08:35:56.451Z,96947.66
2018-11-14T08:38:25.575Z,96941.03
2018-11-14T08:40:54.800Z,96933.36
2018-11-14T08:43:24.008Z,96945.15
2018-11-14T08:45:53.136Z,96943.98
2018-11-14T08:48:22.299Z,96940.55
2018-11-14T08:50:51.477Z,96939.38
2018-11-14T08:53:20.629Z,96936.56
2018-11-14T08:55:49.777Z,96933.45
2018-11-14T08:58:18.953Z,96930.05
2018-11-14T09:00:48.340Z,96929.75
2018-11-14T09:03:17.601Z,96934.45
2018-11-14T09:05:46.757Z,96934.94
2018-11-14T09:08:15.956Z,96932.91
2018-11-14T09:10:45.105Z,96929.75
2018-11-14T09:13:15.750Z,96929.34
2018-11-14T09:15:44.962Z,96923.61
2018-11-14T09:18:14.202Z,96915.22
2018-11-14T09:20:43.314Z,96913.57
2018-11-14T09:23:12.513Z,96908.20
2018-11-14T09:25:41.637Z,96909.08
2018-11-14T09:28:10.790Z,96905.30
2018-11-14T09:30:39.924Z,96900.20
2018-11-14T09:33:09.232Z,96900.19
2018-11-14T09:35:38.397Z,96896.20
2018-11-14T09:38:07.592Z,96902.97
2018-11-14T09:40:36.869Z,96898.89
2018-11-14T09:43:06.048Z,96899.16
2018-11-14T09:45:35.214Z,96894.89
2018-11-14T09:48:04.349Z,96896.82
2018-11-14T09:50:33.787Z,96896.30
2018-11-14T09:53:04.260Z,96882.85
2018-11-14T09:55:33.340Z,96874.42
2018-11-14T09:58:02.801Z,96869.69
2018-11-14T10:00:33.348Z,96870.42
2018-11-14T10:03:08.841Z,96871.43
2018-11-14T10:05:38.071Z,96866.30
2018-11-14T10:08:07.223Z,96867.39
2018-11-14T10:10:36.584Z,96854.03
2018-11-14T10:13:06.362Z,96852.48
2018-11-14T10:15:35.936Z,96857.81
2018-11-14T10:18:05.131Z,96850.15
2018-11-14T10:20:34.293Z,96848.80
2018-11-14T10:23:03.506Z,96859.05
2018-11-14T10:25:32.663Z,96857.09
2018-11-14T10:28:01.919Z,96848.72
2018-11-14T10:30:31.043Z,96857.20
2018-11-14T10:33:00.461Z,96856.09
2018-11-14T10:35:29.661Z,96860.98
2018-11-14T10:37:58.841Z,96858.31
2018-11-14T10:40:28.855Z,96857.70
2018-11-14T10:42:58.243Z,96852.27
2018-11-14T10:45:27.901Z,96851.27
2018-11-14T10:47:57.130Z,96847.55
2018-11-14T10:50:27.401Z,96848.39
2018-11-14T10:52:56.552Z,96828.83
2018-11-14T10:55:25.738Z,96830.16
2018-11-14T10:57:55.316Z,96822.89
2018-11-14T11:00:31.019Z,96825.67
2018-11-14T11:03:07.004Z,96830.98
2018-11-14T11:05:44.252Z,96830.48
2018-11-14T11:08:20.004Z,96825.56
2018-11-14T11:10:54.574Z,96829.66
2018-11-14T11:13:29.042Z,96832.64
2018-11-14T11:16:03.390Z,96820.05
2018-11-14T11:18:33.932Z,96822.78
2018-11-14T11:21:03.157Z,96822.61
2018-11-14T11:23:32.384Z,96832.93
2018-11-14T11:26:01.551Z,96844.08
2018-11-14T11:28:30.759Z,96846.94
2018-11-14T11:30:59.945Z,96838.56
2018-11-14T11:33:29.152Z,96832.92
2018-11-14T11:35:58.348Z,96835.91
2018-11-14T11:38:27.518Z,96829.12
2018-11-14T11:40:56.705Z,96824.81
2018-11-14T11:43:25.878Z,96829.54
2018-11-14T11:45:55.073Z,96831.58
2018-11-14T11:48:24.329Z,96830.66
2018-11-14T11:50:53.601Z,96821.64
2018-11-14T11:53:22.821Z,96822.58
2018-11-14T11:55:52.144Z,96823.47
2018-11-14T11:58:21.358Z,96819.98
2018-11-14T12:00:50.592Z,96820.30
2018-11-14T12:03:19.709Z,96818.64
2018-11-14T12:05:48.950Z,96812.92
2018-11-14T12:08:18.063Z,96810.59
2018-11-14T12:10:47.387Z,96808.09
2018-11-14T12:13:16.523Z,96801.95
2018-11-14T12:15:45.666Z,96802.20
2018-11-14T12:18:14.866Z,96800.89
2018-11-14T12:20:44.093Z,96805.20
2018-11-14T12:23:13.746Z,96795.88
2018-11-14T12:25:43.132Z,96803.48
2018-11-14T12:28:12.356Z,96802.87
2018-11-14T12:30:41.636Z,96787.52
2018-11-14T12:33:10.869Z,96784.78
2018-11-14T12:35:40.104Z,96792.91
2018-11-14T12:38:09.225Z,96793.23
2018-11-14T12:40:38.405Z,96798.98
2018-11-14T12:43:08.186Z,96793.64
2018-11-14T12:45:37.337Z,96800.47
2018-11-14T12:48:06.887Z,96792.92
2018-11-14T12:50:36.088Z,96789.64
2018-11-14T12:53:05.348Z,96788.50
2018-11-14T12:55:34.593Z,96789.03
2018-11-14T12:58:03.827Z,96791.80
2018-11-14T13:00:33.000Z,96791.08
2018-11-14T13:03:02.251Z,96789.11
2018-11-14T13:05:31.433Z,96783.31
2018-11-14T13:08:00.649Z,96786.38
2018-11-14T13:10:29.789Z,96776.98
2018-11-14T13:12:58.956Z,96778.31
2018-11-14T13:15:28.164Z,96774.01
2018-11-14T13:17:57.414Z,96770.63
2018-11-14T13:20:26.599Z,96767.97
2018-11-14T13:22:55.822Z,96770.41
2018-11-14T13:25:25.090Z,96766.33
2018-11-14T13:27:54.360Z,96765.73
2018-11-14T13:30:24.434Z,96768.95
2018-11-14T13:32:54.654Z,96772.05
2018-11-14T13:35:24.344Z,96772.05
2018-11-14T13:37:53.421Z,96766.48
2018-11-14T13:40:22.609Z,96771.42
2018-11-14T13:42:51.895Z,96767.20
2018-11-14T13:45:21.065Z,96767.70
2018-11-14T13:47:50.632Z,96764.92
2018-11-14T13:50:21.701Z,96759.78
2018-11-14T13:52:50.953Z,96751.94
2018-11-14T13:55:21.365Z,96755.32
2018-11-14T13:57:51.585Z,96749.76
2018-11-14T14:00:21.965Z,96755.48
2018-11-14T14:02:52.239Z,96756.55
2018-11-14T14:05:22.805Z,96754.26
2018-11-14T14:07:52.002Z,96750.27
2018-11-14T14:10:21.206Z,96758.23
2018-11-14T14:12:51.824Z,96758.96
2018-11-14T14:15:23.288Z,96759.95
2018-11-14T14:17:52.696Z,96761.72
2018-11-14T14:20:22.527Z,96768.89
2018-11-14T14:22:51.737Z,96774.24
2018-11-14T14:25:21.948Z,96775.05
2018-11-14T14:27:51.117Z,96774.97
2018-11-14T14:30:22.965Z,96772.86
2018-11-14T14:32:52.167Z,96763.67
2018-11-14T14:35:22.294Z,96763.45
2018-11-14T14:37:51.492Z,96761.70
2018-11-14T14:40:22.840Z,96759.97
2018-11-14T14:42:52.104Z,96761.09
2018-11-14T14:45:22.735Z,96763.84
2018-11-14T14:47:51.988Z,96757.20
2018-11-14T14:50:21.425Z,96757.62
2018-11-14T14:52:50.602Z,96757.91
2018-11-14T14:55:22.939Z,96753.43
2018-11-14T14:57:52.100Z,96752.91
2018-11-14T15:00:22.549Z,96749.83
2018-11-14T15:02:51.711Z,96747.59
2018-11-14T15:05:20.891Z,96752.30
2018-11-14T15:07:50.056Z,96753.33
2018-11-14T15:10:20.553Z,96750.16
2018-11-14T15:12:49.758Z,96758.75
2018-11-14T15:15:19.506Z,96749.55
2018-11-14T15:17:48.799Z,96749.55
2018-11-14T15:20:24.097Z,96751.17
2018-11-14T15:22:53.389Z,96754.55
2018-11-14T15:25:23.550Z,96762.52
2018-11-14T15:27:53.041Z,96766.24
2018-11-14T15:30:24.805Z,96769.08
2018-11-14T15:32:54.000Z,96767.73
2018-11-14T15:35:23.301Z,96760.48
2018-11-14T15:37:52.489Z,96759.98
2018-11-14T15:40:23.020Z,96761.11
2018-11-14T15:42:52.335Z,96758.73
2018-11-14T15:45:23.953Z,96761.50
2018-11-14T15:47:53.099Z,96766.31
2018-11-14T15:50:23.698Z,96765.19
2018-11-14T15:52:54.177Z,96756.89
2018-11-14T15:55:23.733Z,96752.20
2018-11-14T15:57:53.096Z,96761.81
2018-11-14T16:00:28.530Z,96758.84
2018-11-14T16:02:57.677Z,96762.52
2018-11-14T16:05:28.185Z,96761.41
2018-11-14T16:07:58.521Z,96757.92
2018-11-14T16:10:28.549Z,96763.34
2018-11-14T16:12:58.058Z,96767.11
2018-11-14T16:15:29.581Z,96762.92
2018-11-14T16:17:58.852Z,96766.73
2018-11-14T16:20:28.213Z,96766.53
2018-11-14T16:22:57.405Z,96768.06
2018-11-14T16:25:27.317Z,96768.87
2018-11-14T16:27:59.574Z,96764.38
2018-11-14T16:30:34.101Z,96766.81
2018-11-14T16:33:04.507Z,96759.88
2018-11-14T16:35:33.783Z,96768.31
2018-11-14T16:38:02.968Z,96776.20
2018-11-14T16:40:33.368Z,96774.17
2018-11-14T16:43:04.064Z,96766.98
2018-11-14T16:45:33.230Z,96768.64
2018-11-14T16:48:02.382Z,96762.91
2018-11-14T16:50:31.533Z,96758.29
2018-11-14T16:53:00.929Z,96752.60
2018-11-14T16:55:30.132Z,96747.06
2018-11-14T16:57:59.262Z,96740.41
2018-11-14T17:00:30.542Z,96742.89
2018-11-14T17:02:59.904Z,96737.66
2018-11-14T17:05:30.248Z,96733.77
2018-11-14T17:07:59.463Z,96742.36
2018-11-14T17:10:28.665Z,96731.64
2018-11-14T17:12:59.083Z,96718.97
2018-11-14T17:15:28.562Z,96728.14
2018-11-14T17:17:57.743Z,96733.26
2018-11-14T17:20:26.960Z,96737.47
2018-11-14T17:22:56.457Z,96737.36
2018-11-14T17:25:25.609Z,96741.23
2018-11-14T17:27:54.797Z,96746.16
2018-11-14T17:30:25.495Z,96745.93
2018-11-14T17:32:55.044Z,96746.52
2018-11-14T17:35:24.161Z,96742.12
2018-11-14T17:37:53.326Z,96742.70
2018-11-14T17:40:24.668Z,96743.14
2018-11-14T17:42:54.331Z,96742.20
2018-11-14T17:45:27.026Z,96742.52
2018-11-14T17:47:56.761Z,96739.78
2018-11-14T17:50:32.589Z,96738.64
2018-11-14T17:53:02.606Z,96746.95
2018-11-14T17:55:32.040Z,96742.88
2018-11-14T17:58:01.371Z,96743.89
2018-11-14T18:00:31.350Z,96743.41
2018-11-14T18:03:00.628Z,96739.30
2018-11-14T18:05:30.841Z,96745.45
2018-11-14T18:08:00.113Z,96744.83
2018-11-14T18:10:30.351Z,96749.50
2018-11-14T18:13:00.601Z,96747.45
2018-11-14T18:15:29.985Z,96740.73
2018-11-14T18:17:59.500Z,96743.66
2018-11-14T18:20:30.132Z,96743.14
2018-11-14T18:22:59.618Z,96740.31
2018-11-14T18:25:28.815Z,96736.63
2018-11-14T18:27:58.129Z,96732.85
2018-11-14T18:30:28.863Z,96733.26
2018-11-14T18:32:58.973Z,96732.44
2018-11-14T18:35:28.517Z,96736.47
2018-11-14T18:37:58.641Z,96733.30
2018-11-14T18:40:30.096Z,96736.98
2018-11-14T18:42:59.288Z,96738.84
2018-11-14T18:45:29.781Z,96734.95
2018-11-14T18:47:59.854Z,96730.67
2018-11-14T18:50:29.240Z,96729.34
2018-11-14T18:52:58.433Z,96735.17
2018-11-14T18:55:29.858Z,96737.86
2018-11-14T18:57:59.736Z,96738.47
2018-11-14T19:00:29.986Z,96735.62
2018-11-14T19:02:59.405Z,96745.94
2018-11-14T19:05:28.639Z,96753.41
2018-11-14T19:07:57.788Z,96749.33
2018-11-14T19:10:28.416Z,96749.55
2018-11-14T19:12:57.863Z,96745.63
2018-11-14T19:15:29.088Z,96744.84
2018-11-14T19:17:58.383Z,96739.81
2018-11-14T19:20:29.943Z,96739.53
2018-11-14T19:22:59.868Z,96742.19
2018-11-14T19:25:30.357Z,96742.80
2018-11-14T19:27:59.681Z,96748.41
2018-11-14T19:30:30.290Z,96744.31
2018-11-14T19:33:00.201Z,96745.45
2018-11-14T19:35:29.507Z,96748.62
2018-11-14T19:37:59.129Z,96742.08
2018-11-14T19:40:29.741Z,96750.36
2018-11-14T19:43:00.917Z,96750.24
2018-11-14T19:45:31.771Z,96749.01
2018-11-14T19:48:00.946Z,96754.23
2018-11-14T19:50:30.164Z,96748.50
2018-11-14T19:52:59.322Z,96748.91
2018-11-14T19:55:28.860Z,96742.05
2018-11-14T19:57:59.387Z,96753.43
2018-11-14T20:00:30.008Z,96751.95
2018-11-14T20:02:59.344Z,96758.71
2018-11-14T20:05:28.574Z,96750.59
2018-11-14T20:07:57.814Z,96742.25
2018-11-14T20:10:28.427Z,96742.37
2018-11-14T20:12:57.625Z,96735.79
2018-11-14T20:15:29.177Z,96737.47
2018-11-14T20:17:58.335Z,96734.59
2018-11-14T20:20:28.900Z,96730.59
2018-11-14T20:22:58.417Z,96734.69
2018-11-14T20:25:27.655Z,96737.03
2018-11-14T20:27:56.921Z,96735.41
2018-11-14T20:30:27.280Z,96732.97
2018-11-14T20:32:57.741Z,96732.63
2018-11-14T20:35:27.455Z,96725.38
2018-11-14T20:37:56.660Z,96732.72
2018-11-14T20:40:26.382Z,96731.20
2018-11-14T20:42:56.974Z,96721.16
2018-11-14T20:45:31.844Z,96729.47
2018-11-14T20:48:01.000Z,96718.52
2018-11-14T20:50:30.169Z,96727.53
2018-11-14T20:53:01.568Z,96699.30
2018-11-14T20:55:31.524Z,96714.86
2018-11-14T20:58:01.190Z,96711.88
2018-11-14T21:00:34.876Z,96704.33
2018-11-14T21:03:04.126Z,96706.38
2018-11-14T21:05:33.766Z,96709.66
2018-11-14T21:08:02.899Z,96702.39
2018-11-14T21:10:33.699Z,96704.94
2018-11-14T21:13:03.861Z,96698.70
2018-11-14T21:15:35.442Z,96699.84
2018-11-14T21:18:04.935Z,96701.86
2018-11-14T21:20:34.117Z,96703.63
2018-11-14T21:23:03.411Z,96705.45
2018-11-14T21:25:32.481Z,96705.56
2018-11-14T21:28:01.671Z,96702.09
2018-11-14T21:30:31.310Z,96705.56
2018-11-14T21:33:00.593Z,96703.02
2018-11-14T21:35:31.869Z,96704.34
2018-11-14T21:38:02.396Z,96705.45
2018-11-14T21:40:32.035Z,96702.30
2018-11-14T21:43:01.230Z,96699.66
2018-11-14T21:45:30.721Z,96706.08
2018-11-14T21:48:05.217Z,96699.03
2018-11-14T21:50:34.751Z,96701.08
2018-11-14T21:53:03.935Z,96694.33
2018-11-14T21:55:33.106Z,96699.01
2018-11-14T21:58:02.327Z,96697.97
2018-11-14T22:00:31.475Z,96702.79
2018-11-14T22:03:00.802Z,96696.16
2018-11-14T22:05:30.021Z,96694.61
2018-11-14T22:07:59.220Z,96698.19
2018-11-14T22:10:28.392Z,96699.14
2018-11-14T22:12:57.599Z,96697.59
2018-11-14T22:15:28.013Z,96692.98
2018-11-14T22:17:57.190Z,96696.47
2018-11-14T22:20:27.154Z,96694.09
2018-11-14T22:22:56.327Z,96690.02
2018-11-14T22:25:26.461Z,96696.86
2018-11-14T22:27:55.776Z,96695.64
2018-11-14T22:30:30.021Z,96691.15
2018-11-14T22:32:59.190Z,96686.23
2018-11-14T22:35:29.591Z,96687.78
2018-11-14T22:37:58.697Z,96684.30
2018-11-14T22:40:29.165Z,96682.03
2018-11-14T22:42:58.363Z,96676.02
2018-11-14T22:45:32.645Z,96676.92
2018-11-14T22:48:01.793Z,96670.09
2018-11-14T22:50:30.972Z,96666.91
2018-11-14T22:53:00.478Z,96667.34
2018-11-14T22:55:29.640Z,96662.22
2018-11-14T22:57:58.792Z,96668.36
2018-11-14T23:00:30.681Z,96656.81
2018-11-14T23:03:01.272Z,96663.65
2018-11-14T23:05:30.420Z,96659.16
2018-11-14T23:08:00.025Z,96653.94
2018-11-14T23:10:29.351Z,96654.76
2018-11-14T23:12:58.505Z,96647.30
2018-11-14T23:15:27.699Z,96645.97
2018-11-14T23:17:56.834Z,96648.30
2018-11-14T23:20:25.961Z,96648.73
2018-11-14T23:22:55.546Z,96651.06
2018-11-14T23:25:24.913Z,96647.30
2018-11-14T23:27:55.153Z,96648.20
2018-11-14T23:30:25.475Z,96650.47
2018-11-14T23:32:55.461Z,96647.61
2018-11-14T23:35:27.761Z,96645.38
2018-11-14T23:38:00.187Z,96637.09
2018-11-14T23:40:29.545Z,96638.42
2018-11-14T23:42:58.732Z,96639.14
2018-11-14T23:45:28.461Z,96635.97
2018-11-14T23:47:57.633Z,96637.70
2018-11-14T23:50:27.985Z,96626.06
2018-11-14T23:52:58.058Z,96628.73
2018-11-14T23:55:28.098Z,96628.01
2018-11-14T23:57:57.579Z,96629.23
